TimeCEST,TemperatureF,Dew PointF,Humidity,Sea Level PressureIn,VisibilityMPH,Wind Direction,Wind SpeedMPH,Gust SpeedMPH,PrecipitationIn,Events,Conditions,WindDirDegrees,DateUTC
5:30 AM,59.0,39.2,48,29.80,6.2,SSW,12.7,26.5,N/A,,Partly Cloudy,210,2014-03-31 03:30:00
6:00 AM,59.0,39.2,48,29.77,6.2,SSW,17.3,32.2,N/A,,Partly Cloudy,210,2014-03-31 04:00:00
6:30 AM,59.0,39.2,48,29.77,6.2,SSW,18.4,32.2,N/A,,Partly Cloudy,200,2014-03-31 04:30:00
7:00 AM,59.0,39.2,48,29.80,6.2,SSW,18.4,32.2,N/A,,Partly Cloudy,210,2014-03-31 05:00:00
7:30 AM,59.0,39.2,48,29.80,6.2,South,23.0,40.3,N/A,,Partly Cloudy,190,2014-03-31 05:30:00
8:00 AM,59,42,42,29.81,16,South,21.9,,,,Scattered Clouds,180,2014-03-31 06:00:00
8:00 AM,59.0,41.0,51,29.80,6.2,SSW,21.9,34.5,N/A,,Partly Cloudy,200,2014-03-31 06:00:00
8:30 AM,59.0,41.0,51,29.80,6.2,South,27.6,41.4,N/A,,Partly Cloudy,180,2014-03-31 06:30:00
9:00 AM,59.0,42.8,55,29.80,6.2,South,23.0,35.7,N/A,,Partly Cloudy,180,2014-03-31 07:00:00
9:30 AM,59.0,42.8,55,29.83,6.2,South,23.0,35.7,N/A,,Partly Cloudy,180,2014-03-31 07:30:00
10:00 AM,59.0,42.8,55,29.83,6.2,South,21.9,33.4,N/A,,Partly Cloudy,180,2014-03-31 08:00:00
10:30 AM,59.0,42.8,55,29.83,6.2,South,19.6,35.7,N/A,,Partly Cloudy,180,2014-03-31 08:30:00
11:00 AM,61,45,45,29.86,12,South,17.3,,,,Scattered Clouds,180,2014-03-31 09:00:00
11:00 AM,59.0,42.8,55,29.83,6.2,South,18.4,29.9,N/A,,Partly Cloudy,190,2014-03-31 09:00:00
11:30 AM,60.8,42.8,52,29.86,6.2,South,18.4,33.4,N/A,,Partly Cloudy,190,2014-03-31 09:30:00
12:00 PM,60.8,42.8,52,29.86,6.2,South,19.6,32.2,N/A,,Partly Cloudy,190,2014-03-31 10:00:00
12:30 PM,60.8,42.8,52,29.86,6.2,South,18.4,31.1,N/A,,Partly Cloudy,190,2014-03-31 10:30:00
1:00 PM,62.6,42.8,48,29.83,6.2,South,20.7,32.2,N/A,,Partly Cloudy,190,2014-03-31 11:00:00
1:30 PM,64.4,42.8,45,29.86,6.2,South,18.4,31.1,N/A,,Partly Cloudy,190,2014-03-31 11:30:00
2:00 PM,67,44,32,29.86,12,South,13.8,,,,Scattered Clouds,180,2014-03-31 12:00:00
2:00 PM,64.4,41.0,42,29.86,6.2,South,13.8,-,N/A,,Partly Cloudy,190,2014-03-31 12:00:00
2:30 PM,64.4,42.8,45,29.83,6.2,South,11.5,-,N/A,,Partly Cloudy,190,2014-03-31 12:30:00
3:00 PM,64.4,42.8,45,29.83,6.2,South,11.5,-,N/A,,Partly Cloudy,190,2014-03-31 13:00:00
3:30 PM,64.4,42.8,45,29.83,6.2,South,10.4,-,N/A,,Partly Cloudy,180,2014-03-31 13:30:00
4:00 PM,64.4,41.0,42,29.80,6.2,SSW,9.2,-,N/A,,Partly Cloudy,200,2014-03-31 14:00:00
4:30 PM,66.2,42.8,43,29.80,6.2,South,9.2,-,N/A,,Partly Cloudy,170,2014-03-31 14:30:00
5:00 PM,72,44,25,29.80,16,South,11.5,,,,Scattered Clouds,180,2014-03-31 15:00:00
5:00 PM,68.0,41.0,37,29.80,6.2,South,11.5,-,N/A,,Partly Cloudy,180,2014-03-31 15:00:00
5:30 PM,68.0,41.0,37,29.77,6.2,SSW,8.1,-,N/A,,Partly Cloudy,200,2014-03-31 15:30:00
6:00 PM,64.4,46.4,52,29.77,6.2,ESE,8.1,-,N/A,,Partly Cloudy,110,2014-03-31 16:00:00
6:30 PM,64.4,46.4,52,29.77,6.2,East,6.9,-,N/A,,Partly Cloudy,80,2014-03-31 16:30:00
7:00 PM,60.8,48.2,63,29.77,6.2,NE,3.5,-,N/A,,Partly Cloudy,50,2014-03-31 17:00:00
7:30 PM,62.6,48.2,59,29.77,6.2,ESE,6.9,-,N/A,,Partly Cloudy,120,2014-03-31 17:30:00
8:00 PM,59.0,50.0,72,29.77,6.2,Variable,1.2,-,N/A,,Partly Cloudy,0,2014-03-31 18:00:00
8:30 PM,60.8,48.2,63,29.77,6.2,ESE,8.1,-,N/A,,Partly Cloudy,120,2014-03-31 18:30:00
9:00 PM,60.8,46.4,59,29.77,6.2,East,8.1,-,N/A,,Partly Cloudy,100,2014-03-31 19:00:00
9:30 PM,59.0,46.4,63,29.77,6.2,East,5.8,-,N/A,,Partly Cloudy,100,2014-03-31 19:30:00
10:00 PM,59.0,46.4,63,29.77,6.2,East,5.8,-,N/A,,Partly Cloudy,90,2014-03-31 20:00:00
10:30 PM,59.0,46.4,63,29.77,6.2,East,6.9,-,N/A,,Partly Cloudy,100,2014-03-31 20:30:00
11:00 PM,57.2,46.4,67,29.74,6.2,East,3.5,-,N/A,,Partly Cloudy,100,2014-03-31 21:00:00